Barkersville, South Carolina
Current Conditions -  °F | °C
As of 9:21 AM on Tuesday 21 Oct 2014 (Local Time) from KNBC Reporting Station
Clear Clear  
Wind Chill: 20°   Ceiling: Unl
Heat Index: 20°   Visibility: 10mi
Dew Point: 16°   Wind: 5mph
Humidity: 76%   Direction: 330°NNW
Pressure: 29.99"   Gusts: NA
Location:  32.6221°N, 81.0484°W
Report Text: KNBC 211321Z 33004KT 10SM CLR 20/16 A2999 RMK AO2 FIRST T02000156 $
Loading
Personal Weather Stations






























Interactive Weather Map
Tropical Storm Tracking
New forecast layout! Learn more

10-Day Weather Forecast

Advertisements
Track Severe Weather on mobile